createdAt,value
2018-01-31T01:52:20.375Z,87.04
2018-01-31T01:52:21.228Z,89.00
2018-01-31T01:53:19.815Z,88.80
2018-01-31T01:54:19.792Z,89.75
2018-01-31T01:55:19.786Z,88.71
2018-01-31T01:56:19.766Z,89.09
2018-01-31T01:57:19.753Z,89.94
2018-01-31T01:58:19.740Z,89.85
2018-01-31T01:59:19.730Z,90.04
2018-01-31T02:00:19.721Z,89.37
2018-01-31T02:01:19.709Z,89.28
2018-01-31T02:02:19.688Z,90.42
2018-01-31T02:03:19.676Z,90.80
2018-01-31T02:04:19.667Z,90.23
2018-01-31T02:05:19.650Z,91.47
2018-01-31T02:06:19.637Z,91.37
2018-01-31T02:07:19.628Z,90.42
2018-01-31T02:08:19.617Z,90.14
2018-01-31T02:09:19.603Z,91.56
2018-01-31T02:10:19.585Z,90.80
2018-01-31T02:11:19.579Z,91.47
2018-01-31T02:12:19.565Z,90.70
2018-01-31T02:13:19.546Z,90.99
2018-01-31T02:14:19.538Z,90.61
2018-01-31T02:15:19.522Z,91.56
2018-01-31T02:16:19.505Z,91.33
2018-01-31T02:17:19.498Z,91.75
2018-01-31T02:18:19.480Z,91.66
2018-01-31T02:19:19.466Z,91.89
2018-01-31T02:20:19.453Z,90.94
2018-01-31T02:21:19.441Z,91.33
2018-01-31T02:22:19.429Z,92.08
2018-01-31T02:23:19.415Z,92.75
2018-01-31T02:24:19.409Z,92.18
2018-01-31T02:25:19.389Z,92.08
2018-01-31T02:26:19.381Z,91.80
2018-01-31T02:27:19.361Z,91.61
2018-01-31T02:28:19.352Z,92.08
2018-01-31T02:29:19.334Z,92.18
2018-01-31T02:30:19.327Z,92.27
2018-01-31T02:31:19.310Z,92.94
2018-01-31T02:32:19.294Z,93.04
2018-01-31T02:33:19.286Z,93.04
2018-01-31T02:34:19.280Z,93.23
2018-01-31T02:35:19.254Z,93.51
2018-01-31T02:36:19.241Z,93.13
2018-01-31T02:37:19.233Z,93.23
2018-01-31T02:38:19.215Z,94.08
2018-01-31T02:39:19.206Z,94.84
2018-01-31T02:40:19.192Z,93.04
2018-01-31T02:41:19.173Z,93.32
2018-01-31T02:42:19.168Z,93.08
2018-01-31T02:43:19.152Z,93.04
2018-01-31T02:44:19.132Z,93.65
2018-01-31T02:45:19.121Z,93.65
2018-01-31T02:46:19.107Z,94.79
2018-01-31T02:47:19.094Z,94.51
2018-01-31T02:48:19.079Z,94.23
2018-01-31T02:49:19.065Z,94.23
2018-01-31T02:50:19.051Z,94.89
2018-01-31T02:51:19.041Z,94.42
2018-01-31T02:52:19.024Z,94.51
2018-01-31T02:53:19.017Z,94.89
2018-01-31T02:54:18.997Z,94.70
2018-01-31T02:55:18.986Z,94.23
2018-01-31T02:56:18.970Z,94.32
2018-01-31T02:57:18.962Z,94.23
2018-01-31T02:58:18.949Z,93.84
2018-01-31T02:59:18.932Z,94.70
2018-01-31T03:00:18.923Z,94.89
2018-01-31T03:01:18.902Z,94.89
2018-01-31T03:02:18.893Z,94.32
2018-01-31T03:03:18.872Z,94.79
2018-01-31T03:04:18.858Z,95.08
2018-01-31T03:05:18.846Z,94.79
2018-01-31T03:06:18.832Z,95.46
2018-01-31T03:07:18.817Z,96.03
2018-01-31T03:08:18.805Z,95.27
2018-01-31T03:09:18.788Z,94.70
2018-01-31T03:10:18.779Z,95.08
2018-01-31T03:11:18.763Z,94.79
2018-01-31T03:12:18.748Z,94.98
2018-01-31T03:13:18.733Z,95.75
2018-01-31T03:14:18.723Z,95.46
2018-01-31T03:15:18.714Z,94.89
2018-01-31T03:16:18.693Z,94.79
2018-01-31T03:17:18.684Z,95.55
2018-01-31T03:18:18.664Z,95.36
2018-01-31T03:19:18.656Z,95.17
2018-01-31T03:20:18.639Z,95.70
2018-01-31T03:21:18.626Z,96.50
2018-01-31T03:22:18.609Z,95.94
2018-01-31T03:23:18.598Z,96.12
2018-01-31T03:24:18.580Z,95.36
2018-01-31T03:25:18.568Z,95.17
2018-01-31T03:26:18.566Z,95.46
2018-01-31T03:27:18.541Z,95.55
2018-01-31T03:28:18.526Z,95.22
2018-01-31T03:29:18.513Z,95.75
2018-01-31T03:30:18.498Z,95.36
2018-01-31T03:31:18.488Z,95.27
2018-01-31T03:32:18.468Z,95.36
2018-01-31T03:33:18.453Z,94.89
2018-01-31T03:34:18.443Z,95.08
2018-01-31T03:35:18.425Z,95.17
2018-01-31T03:36:18.416Z,95.46
2018-01-31T03:37:18.398Z,95.27
2018-01-31T03:38:18.381Z,95.51
2018-01-31T03:39:18.369Z,95.36
2018-01-31T03:40:18.360Z,96.31
2018-01-31T03:41:18.339Z,95.65
2018-01-31T03:42:18.325Z,96.03
2018-01-31T03:43:18.317Z,96.60
2018-01-31T03:44:18.304Z,95.55
2018-01-31T03:45:18.283Z,94.79
2018-01-31T03:46:18.272Z,96.22
2018-01-31T03:47:18.261Z,97.27
2018-01-31T03:48:18.240Z,95.55
2018-01-31T03:49:18.250Z,95.46
2018-01-31T03:50:18.217Z,94.70
2018-01-31T03:51:18.198Z,94.93
2018-01-31T03:52:18.180Z,96.22
2018-01-31T03:53:18.174Z,96.41
2018-01-31T03:54:18.154Z,95.36
2018-01-31T03:55:18.139Z,95.46
2018-01-31T03:56:18.129Z,94.70
2018-01-31T03:57:18.111Z,95.08
2018-01-31T03:58:18.102Z,97.92
2018-01-31T03:59:18.083Z,95.94
2018-01-31T04:00:18.067Z,97.07
2018-01-31T04:01:18.059Z,95.65
2018-01-31T04:02:18.042Z,94.89
2018-01-31T04:03:18.027Z,96.41
2018-01-31T04:04:18.018Z,96.41
2018-01-31T04:05:18.004Z,95.55
2018-01-31T04:06:17.987Z,95.46
2018-01-31T04:07:17.967Z,95.46
2018-01-31T04:08:17.952Z,95.46
2018-01-31T04:09:17.938Z,95.65
2018-01-31T04:10:17.923Z,95.31
2018-01-31T04:11:17.910Z,95.70
2018-01-31T04:12:17.894Z,95.22
2018-01-31T04:13:17.888Z,95.22
2018-01-31T04:14:17.869Z,95.60
2018-01-31T04:15:17.858Z,96.26
2018-01-31T04:16:17.838Z,96.45
2018-01-31T04:17:17.823Z,96.45
2018-01-31T04:18:17.811Z,96.45
2018-01-31T04:19:17.796Z,96.26
2018-01-31T04:20:17.784Z,96.08
2018-01-31T04:21:17.765Z,97.02
2018-01-31T04:22:17.758Z,97.02
2018-01-31T04:23:17.742Z,96.45
2018-01-31T04:24:17.729Z,96.26
2018-01-31T04:25:17.709Z,97.02
2018-01-31T04:26:17.694Z,97.22
2018-01-31T04:27:17.682Z,97.31
2018-01-31T04:28:17.664Z,96.36
2018-01-31T04:29:17.651Z,95.89
2018-01-31T04:30:17.636Z,96.55
2018-01-31T04:31:17.631Z,95.70
2018-01-31T04:32:17.608Z,96.55
2018-01-31T04:33:17.598Z,96.83
2018-01-31T04:34:17.580Z,97.97
2018-01-31T04:35:17.563Z,96.26
2018-01-31T04:36:17.549Z,96.26
2018-01-31T04:37:17.540Z,96.45
2018-01-31T04:38:17.522Z,96.45
2018-01-31T04:39:17.508Z,96.08
2018-01-31T04:40:17.493Z,95.70
2018-01-31T04:41:17.481Z,95.70
2018-01-31T04:42:17.469Z,95.89
2018-01-31T04:43:17.454Z,96.55
2018-01-31T04:44:17.432Z,96.17
2018-01-31T04:45:17.419Z,96.36
2018-01-31T04:46:17.403Z,96.26
2018-01-31T04:47:17.396Z,96.93
2018-01-31T04:48:17.373Z,98.26
2018-01-31T04:49:17.360Z,98.92
2018-01-31T04:50:17.346Z,99.11
2018-01-31T04:51:17.331Z,95.98
2018-01-31T04:52:17.316Z,96.36
2018-01-31T04:53:17.305Z,96.45
2018-01-31T04:54:17.287Z,96.36
2018-01-31T04:55:17.280Z,95.79
2018-01-31T04:56:17.257Z,95.70
2018-01-31T04:57:17.250Z,95.31
2018-01-31T04:58:17.232Z,95.60
2018-01-31T04:59:17.214Z,95.89
2018-01-31T05:00:17.208Z,96.08
2018-01-31T05:01:17.185Z,97.88
2018-01-31T05:02:17.170Z,96.26
2018-01-31T05:03:17.162Z,96.45
2018-01-31T05:04:17.141Z,99.30
2018-01-31T05:05:17.124Z,97.78
2018-01-31T05:06:17.110Z,96.17
2018-01-31T05:07:17.097Z,96.93
2018-01-31T05:08:17.082Z,97.31
2018-01-31T05:09:17.066Z,96.45
2018-01-31T05:10:17.054Z,95.60
2018-01-31T05:11:17.041Z,96.36
2018-01-31T05:12:17.023Z,97.41
2018-01-31T05:13:17.007Z,95.89
2018-01-31T05:14:16.996Z,96.17
2018-01-31T05:15:16.986Z,97.60
2018-01-31T05:16:16.969Z,97.88
2018-01-31T05:17:16.950Z,96.17
2018-01-31T05:18:16.936Z,95.51
2018-01-31T05:19:16.928Z,96.17
2018-01-31T05:20:16.908Z,96.45
2018-01-31T05:21:16.896Z,95.70
2018-01-31T05:22:16.878Z,96.45
2018-01-31T05:23:16.864Z,97.02
2018-01-31T05:24:16.848Z,95.98
2018-01-31T05:25:16.842Z,95.79
2018-01-31T05:26:16.821Z,95.51
2018-01-31T05:27:16.802Z,95.22
2018-01-31T05:28:16.788Z,96.36
2018-01-31T05:29:16.780Z,96.36
2018-01-31T05:30:16.764Z,96.64
2018-01-31T05:31:16.744Z,95.70
2018-01-31T05:32:16.728Z,95.22
2018-01-31T05:33:16.713Z,97.69
2018-01-31T05:34:16.708Z,96.41
2018-01-31T05:35:16.686Z,95.41
2018-01-31T05:36:16.672Z,96.26
2018-01-31T05:37:16.656Z,94.93
2018-01-31T05:38:16.646Z,94.93
2018-01-31T05:39:16.633Z,94.84
2018-01-31T05:40:16.618Z,94.37
2018-01-31T05:41:16.600Z,94.93
2018-01-31T05:42:16.593Z,94.84
2018-01-31T05:43:16.576Z,94.74
2018-01-31T05:44:16.566Z,94.74
2018-01-31T05:45:16.543Z,97.22
2018-01-31T05:46:16.529Z,96.36
2018-01-31T05:47:16.520Z,95.70
2018-01-31T05:48:16.497Z,95.51
2018-01-31T05:49:16.489Z,96.08
2018-01-31T05:50:16.471Z,96.93
2018-01-31T05:51:16.459Z,96.45
2018-01-31T05:52:16.439Z,95.60
2018-01-31T05:53:16.426Z,95.22
2018-01-31T05:54:16.413Z,95.51
2018-01-31T05:55:16.396Z,95.41
2018-01-31T05:56:16.380Z,95.22
2018-01-31T05:57:16.413Z,94.84
2018-01-31T05:58:16.360Z,95.79
2018-01-31T05:59:16.344Z,94.74
2018-01-31T06:00:16.330Z,96.08
2018-01-31T06:01:16.315Z,95.51
2018-01-31T06:02:16.296Z,95.60
2018-01-31T06:03:16.287Z,96.17
2018-01-31T06:04:16.266Z,95.22
2018-01-31T06:05:16.249Z,95.03
2018-01-31T06:06:16.232Z,94.84
2018-01-31T06:07:16.221Z,95.12
2018-01-31T06:08:16.210Z,95.70
2018-01-31T06:09:16.190Z,94.93
2018-01-31T06:10:16.176Z,95.41
2018-01-31T06:11:16.165Z,95.51
2018-01-31T06:12:16.143Z,95.31
2018-01-31T06:13:16.128Z,95.70
2018-01-31T06:14:16.121Z,94.74
2018-01-31T06:15:16.102Z,96.17
2018-01-31T06:16:16.084Z,95.51
2018-01-31T06:17:16.077Z,94.93
2018-01-31T06:18:16.054Z,94.56
2018-01-31T06:19:16.040Z,94.93
2018-01-31T06:20:16.029Z,95.41
2018-01-31T06:21:16.010Z,95.31
2018-01-31T06:22:15.996Z,95.12
2018-01-31T06:23:15.989Z,94.74
2018-01-31T06:24:15.967Z,95.41
2018-01-31T06:25:15.955Z,94.93
2018-01-31T06:26:15.944Z,94.93
2018-01-31T06:27:15.922Z,94.74
2018-01-31T06:28:15.913Z,94.37
2018-01-31T06:29:15.893Z,94.56
2018-01-31T06:30:15.876Z,95.98
2018-01-31T06:31:15.862Z,95.51
2018-01-31T06:32:15.848Z,94.93
2018-01-31T06:33:15.841Z,95.60
2018-01-31T06:34:15.827Z,96.08
2018-01-31T06:35:15.806Z,94.74
2018-01-31T06:36:15.789Z,97.31
2018-01-31T06:37:15.775Z,95.03
2018-01-31T06:38:15.760Z,94.56
2018-01-31T06:39:15.745Z,95.03
2018-01-31T06:40:15.730Z,94.74
2018-01-31T06:41:15.715Z,95.12
2018-01-31T06:42:15.708Z,95.12
2018-01-31T06:43:15.690Z,94.93
2018-01-31T06:44:15.671Z,94.46
2018-01-31T06:45:15.658Z,94.93
2018-01-31T06:46:15.642Z,95.51
2018-01-31T06:47:15.632Z,94.74
2018-01-31T06:48:15.616Z,95.03
2018-01-31T06:49:15.600Z,95.03
2018-01-31T06:50:15.591Z,94.74
2018-01-31T06:51:15.568Z,94.74
2018-01-31T06:52:15.556Z,94.74
2018-01-31T06:53:15.537Z,94.37
2018-01-31T06:54:15.523Z,94.46
2018-01-31T06:55:15.515Z,94.46
2018-01-31T06:56:15.493Z,94.46
2018-01-31T06:57:15.486Z,95.03
2018-01-31T06:58:15.468Z,94.74
2018-01-31T06:59:15.452Z,95.70
2018-01-31T07:00:15.442Z,94.84
2018-01-31T07:01:15.435Z,94.84
2018-01-31T07:02:15.407Z,95.41
2018-01-31T07:03:15.394Z,95.94
2018-01-31T07:04:15.380Z,94.65
2018-01-31T07:05:15.370Z,93.84
2018-01-31T07:06:15.356Z,94.27
2018-01-31T07:07:15.335Z,94.70
2018-01-31T07:08:15.328Z,94.60
2018-01-31T07:09:15.311Z,93.94
2018-01-31T07:10:15.293Z,94.13
2018-01-31T07:11:15.283Z,93.60
2018-01-31T07:12:15.264Z,94.60
2018-01-31T07:13:15.248Z,94.89
2018-01-31T07:14:15.242Z,94.03
2018-01-31T07:15:15.225Z,93.37
2018-01-31T07:16:15.205Z,93.56
2018-01-31T07:17:15.197Z,93.08
2018-01-31T07:18:15.177Z,93.75
2018-01-31T07:19:15.161Z,93.75
2018-01-31T07:20:15.153Z,95.65
2018-01-31T07:21:15.132Z,94.60
2018-01-31T07:22:15.118Z,93.84
2018-01-31T07:23:15.109Z,93.08
2018-01-31T07:24:15.088Z,93.56
2018-01-31T07:25:15.078Z,93.56
2018-01-31T07:26:15.066Z,94.03
2018-01-31T07:27:15.049Z,93.27
2018-01-31T07:28:15.040Z,94.79
2018-01-31T07:29:15.019Z,94.89
2018-01-31T07:30:15.010Z,92.32
2018-01-31T07:31:14.992Z,92.61
2018-01-31T07:32:14.981Z,93.27
2018-01-31T07:33:14.958Z,93.65
2018-01-31T07:34:14.945Z,92.99
2018-01-31T07:35:14.938Z,93.94
2018-01-31T07:36:14.916Z,94.60
2018-01-31T07:37:14.910Z,92.99
2018-01-31T07:38:14.888Z,95.17
2018-01-31T07:39:14.877Z,95.08
2018-01-31T07:40:14.857Z,93.65
2018-01-31T07:41:14.847Z,94.84
2018-01-31T07:42:14.836Z,92.18
2018-01-31T07:43:14.817Z,90.99
2018-01-31T07:44:14.802Z,92.18
2018-01-31T07:45:14.785Z,90.14
2018-01-31T07:46:14.775Z,90.00
2018-01-31T07:47:14.756Z,90.09
2018-01-31T07:48:14.741Z,90.85
2018-01-31T07:49:14.733Z,90.33
2018-01-31T07:50:14.716Z,90.33
2018-01-31T07:51:14.700Z,90.19
2018-01-31T07:52:14.685Z,92.66
2018-01-31T07:53:14.671Z,90.14
2018-01-31T07:54:14.663Z,90.90
2018-01-31T07:55:14.642Z,91.13
2018-01-31T07:56:14.629Z,90.14
2018-01-31T07:57:14.615Z,91.04
2018-01-31T07:58:14.601Z,90.80
2018-01-31T07:59:14.585Z,90.14
2018-01-31T08:00:14.572Z,91.42
2018-01-31T08:01:14.557Z,90.37
2018-01-31T08:02:14.546Z,91.33
2018-01-31T08:03:14.532Z,93.23
2018-01-31T08:04:14.514Z,92.08
2018-01-31T08:05:14.500Z,89.90
2018-01-31T08:06:14.486Z,89.33
2018-01-31T08:07:14.474Z,89.52
2018-01-31T08:08:14.465Z,88.85
2018-01-31T08:09:14.450Z,93.41
2018-01-31T08:10:14.432Z,89.42
2018-01-31T08:11:14.416Z,88.28
2018-01-31T08:12:14.404Z,88.76
2018-01-31T08:13:14.390Z,90.47
2018-01-31T08:14:14.374Z,89.80
2018-01-31T08:15:14.362Z,90.19
2018-01-31T08:16:14.347Z,91.04
2018-01-31T08:17:14.331Z,91.52
2018-01-31T08:18:14.326Z,90.66
2018-01-31T08:19:14.305Z,90.56
2018-01-31T08:20:14.291Z,89.90
2018-01-31T08:21:14.282Z,88.85
2018-01-31T08:22:14.262Z,89.04
2018-01-31T08:23:14.249Z,89.33
2018-01-31T08:24:14.242Z,89.04
2018-01-31T08:25:14.221Z,89.90
2018-01-31T08:26:14.209Z,89.33
2018-01-31T08:27:14.195Z,90.19
2018-01-31T08:28:14.178Z,89.52
2018-01-31T08:29:14.171Z,89.42
2018-01-31T08:30:14.152Z,90.94
2018-01-31T08:31:14.137Z,88.85
2018-01-31T08:32:14.132Z,88.57
2018-01-31T08:33:14.121Z,88.57
2018-01-31T08:34:14.099Z,89.23
2018-01-31T08:35:14.086Z,90.19
2018-01-31T08:36:14.068Z,89.42
2018-01-31T08:37:14.054Z,88.19
2018-01-31T08:38:14.046Z,89.33
2018-01-31T08:39:14.028Z,90.19
2018-01-31T08:40:14.021Z,89.52
2018-01-31T08:41:14.000Z,89.90
2018-01-31T08:42:13.987Z,88.19
2018-01-31T08:43:13.973Z,88.38
2018-01-31T08:44:13.959Z,87.90
2018-01-31T08:45:13.947Z,89.80
2018-01-31T08:46:13.932Z,89.52
2018-01-31T08:47:13.919Z,87.34
2018-01-31T08:48:13.905Z,87.52
2018-01-31T08:49:13.890Z,87.52
2018-01-31T08:50:13.877Z,88.00
2018-01-31T08:51:13.868Z,89.04
2018-01-31T08:52:13.849Z,88.00
2018-01-31T08:53:13.835Z,88.95
2018-01-31T08:54:13.822Z,90.56
2018-01-31T08:55:13.809Z,88.95
2018-01-31T08:56:13.794Z,89.42
2018-01-31T08:57:13.780Z,88.57
2018-01-31T08:58:13.769Z,90.00
2018-01-31T08:59:13.760Z,87.90
2018-01-31T09:00:13.746Z,87.52
2018-01-31T09:01:13.733Z,87.43
2018-01-31T09:02:13.718Z,88.19
2018-01-31T09:03:13.703Z,87.52
2018-01-31T09:04:13.685Z,88.00
2018-01-31T09:05:13.681Z,87.52
2018-01-31T09:06:13.676Z,87.90
2018-01-31T09:07:13.661Z,90.09
2018-01-31T09:08:13.644Z,90.56
2018-01-31T09:09:13.623Z,89.47
2018-01-31T09:10:13.604Z,88.80
2018-01-31T09:11:13.592Z,88.33
2018-01-31T09:12:13.582Z,89.66
2018-01-31T09:13:13.569Z,87.19
2018-01-31T09:14:13.550Z,85.76
2018-01-31T09:15:13.542Z,86.14
2018-01-31T09:16:13.524Z,87.28
2018-01-31T09:17:13.515Z,87.28
2018-01-31T09:18:13.495Z,88.13
2018-01-31T09:19:13.491Z,87.76
2018-01-31T09:20:13.475Z,88.04
2018-01-31T09:21:13.457Z,85.61
2018-01-31T09:22:13.447Z,85.04
2018-01-31T09:23:13.433Z,84.47
2018-01-31T09:24:13.416Z,86.09
2018-01-31T09:25:13.402Z,86.66
2018-01-31T09:26:13.389Z,86.09
2018-01-31T09:27:13.378Z,84.66
2018-01-31T09:28:13.364Z,84.09
2018-01-31T09:29:13.406Z,87.23
2018-01-31T09:30:13.342Z,87.94
2018-01-31T09:31:13.322Z,83.09
2018-01-31T09:32:13.314Z,84.04
2018-01-31T09:33:13.301Z,84.33
2018-01-31T09:34:13.293Z,81.66
2018-01-31T09:35:13.277Z,83.18
2018-01-31T09:36:13.257Z,83.18
2018-01-31T09:37:13.249Z,81.51
2018-01-31T09:38:13.235Z,82.75
2018-01-31T09:39:13.220Z,81.70
2018-01-31T09:40:13.207Z,80.84
2018-01-31T09:41:13.198Z,81.13
2018-01-31T09:42:13.183Z,79.99
2018-01-31T09:43:13.172Z,79.13
2018-01-31T09:44:13.157Z,80.08
2018-01-31T09:45:13.144Z,79.32
2018-01-31T09:46:13.133Z,79.13
2018-01-31T09:47:13.126Z,80.55
2018-01-31T09:48:13.109Z,78.03
2018-01-31T09:49:13.095Z,79.51
2018-01-31T09:50:13.091Z,79.51
2018-01-31T09:51:13.070Z,79.22
2018-01-31T09:52:13.057Z,78.50
2018-01-31T09:53:13.046Z,79.07
2018-01-31T09:54:13.039Z,78.46
2018-01-31T09:55:13.023Z,77.98
2018-01-31T09:56:13.010Z,78.85
2018-01-31T09:57:13.014Z,78.03
2018-01-31T09:58:12.987Z,77.70
2018-01-31T09:59:12.984Z,78.03
2018-01-31T10:00:12.968Z,77.45
2018-01-31T10:01:12.951Z,77.17
2018-01-31T10:02:12.939Z,77.07
2018-01-31T10:03:12.935Z,77.55
2018-01-31T10:04:12.916Z,76.84
2018-01-31T10:05:12.909Z,76.50
2018-01-31T10:06:12.894Z,76.75
2018-01-31T10:07:12.886Z,76.37
2018-01-31T10:08:12.871Z,76.94
2018-01-31T10:09:12.865Z,79.60
2018-01-31T10:10:12.849Z,77.61
2018-01-31T10:11:12.838Z,76.75
2018-01-31T10:12:12.824Z,76.08
2018-01-31T10:13:12.814Z,78.65
2018-01-31T10:14:12.805Z,77.61
2018-01-31T10:15:12.793Z,77.70
2018-01-31T10:16:12.776Z,77.22
2018-01-31T10:17:12.771Z,77.51
2018-01-31T10:18:12.758Z,76.37
2018-01-31T10:19:12.745Z,76.65
2018-01-31T10:20:12.731Z,77.98
2018-01-31T10:21:12.717Z,75.42
2018-01-31T10:22:12.715Z,75.36
2018-01-31T10:23:12.694Z,75.36
2018-01-31T10:24:12.683Z,73.93
2018-01-31T10:25:12.678Z,74.12
2018-01-31T10:26:12.661Z,74.98
2018-01-31T10:27:12.647Z,73.93
2018-01-31T10:28:12.635Z,74.79
2018-01-31T10:29:12.627Z,74.79
2018-01-31T10:30:12.621Z,74.88
2018-01-31T10:31:12.607Z,75.26
2018-01-31T10:32:12.591Z,76.69
2018-01-31T10:33:12.580Z,73.45
2018-01-31T10:34:12.567Z,72.88
2018-01-31T10:35:12.558Z,72.02
2018-01-31T10:36:12.544Z,73.36
2018-01-31T10:37:12.531Z,73.45
2018-01-31T10:38:12.530Z,72.78
2018-01-31T10:39:12.516Z,73.11
2018-01-31T10:40:12.498Z,73.39
2018-01-31T10:41:12.490Z,72.16
2018-01-31T10:42:12.478Z,73.11
2018-01-31T10:43:12.465Z,73.11
2018-01-31T10:44:12.457Z,72.82
2018-01-31T10:45:12.444Z,72.53
2018-01-31T10:46:12.432Z,71.48
2018-01-31T10:47:12.428Z,71.11
2018-01-31T10:48:12.409Z,71.11
2018-01-31T10:49:12.397Z,71.96
2018-01-31T10:50:12.388Z,71.39
2018-01-31T10:51:12.382Z,70.19
2018-01-31T10:52:12.365Z,70.38
2018-01-31T10:53:12.358Z,70.00
2018-01-31T10:57:28.864Z,70.15
2018-01-31T10:58:12.308Z,70.34
2018-01-31T10:59:12.296Z,69.87
2018-01-31T11:00:12.286Z,70.34
2018-01-31T11:01:12.269Z,70.09
2018-01-31T11:02:12.259Z,70.25
2018-01-31T11:03:12.248Z,71.72
2018-01-31T11:04:12.236Z,71.14
2018-01-31T11:05:12.227Z,68.95
2018-01-31T11:06:12.214Z,69.04
2018-01-31T11:07:12.207Z,69.71
2018-01-31T11:08:12.199Z,68.66
2018-01-31T11:09:12.189Z,69.14
2018-01-31T11:10:12.172Z,69.81
2018-01-31T11:11:12.170Z,68.76
2018-01-31T11:12:12.157Z,68.18
2018-01-31T11:13:12.142Z,68.18
2018-01-31T11:14:12.141Z,68.85
2018-01-31T11:15:12.124Z,70.28
2018-01-31T11:16:12.112Z,70.47
2018-01-31T11:17:12.105Z,68.47
2018-01-31T11:18:12.090Z,68.47
2018-01-31T11:19:12.085Z,68.95
2018-01-31T11:20:12.074Z,70.86
2018-01-31T11:21:12.059Z,69.33
2018-01-31T11:22:12.054Z,67.61
2018-01-31T11:23:12.039Z,67.99
2018-01-31T11:24:12.033Z,68.18
2018-01-31T11:25:12.023Z,68.66
2018-01-31T11:26:12.010Z,69.33
2018-01-31T11:27:12.016Z,67.99
2018-01-31T11:28:11.992Z,68.47
2018-01-31T11:29:11.975Z,67.99
2018-01-31T11:30:11.967Z,68.28
2018-01-31T11:31:11.958Z,68.47
2018-01-31T11:32:11.946Z,69.14
2018-01-31T11:33:11.948Z,68.47
2018-01-31T11:34:11.933Z,68.66
2018-01-31T11:35:11.921Z,68.57
2018-01-31T11:36:11.913Z,69.62
2018-01-31T11:37:11.901Z,68.47
2018-01-31T11:38:11.888Z,67.99
2018-01-31T11:39:11.874Z,67.90
2018-01-31T11:40:11.865Z,69.14
2018-01-31T11:41:11.856Z,68.60
2018-01-31T11:42:11.844Z,67.93
2018-01-31T11:43:11.841Z,67.27
2018-01-31T11:44:11.834Z,66.78
2018-01-31T11:45:11.820Z,68.03
2018-01-31T11:46:11.807Z,67.55
2018-01-31T11:47:11.803Z,67.46
2018-01-31T11:48:11.784Z,67.36
2018-01-31T11:49:11.774Z,66.88
2018-01-31T11:50:11.765Z,66.60
2018-01-31T11:51:11.760Z,65.93
2018-01-31T11:52:11.750Z,66.78
2018-01-31T11:53:11.734Z,68.32
2018-01-31T11:54:11.724Z,68.22
2018-01-31T11:55:11.714Z,67.36
2018-01-31T11:56:11.707Z,67.65
2018-01-31T11:57:11.699Z,67.27
2018-01-31T11:58:11.685Z,66.60
2018-01-31T11:59:11.675Z,66.60
2018-01-31T12:00:11.671Z,66.50
2018-01-31T12:01:11.655Z,65.55
2018-01-31T12:02:11.645Z,65.26
2018-01-31T12:03:11.635Z,65.10
2018-01-31T12:04:11.625Z,64.91
2018-01-31T12:05:11.616Z,65.64
2018-01-31T12:06:11.608Z,66.02
2018-01-31T12:07:11.594Z,66.69
2018-01-31T12:08:11.586Z,65.64
2018-01-31T12:09:11.576Z,66.31
2018-01-31T12:10:11.572Z,66.98
2018-01-31T12:11:11.562Z,69.46
2018-01-31T12:12:11.549Z,69.27
2018-01-31T12:13:11.541Z,66.69
2018-01-31T12:14:11.531Z,66.02
2018-01-31T12:15:11.522Z,65.83
2018-01-31T12:16:11.509Z,65.83
2018-01-31T12:17:11.503Z,66.22
2018-01-31T12:18:11.493Z,66.66
2018-01-31T12:19:11.481Z,67.93
2018-01-31T12:20:11.477Z,67.36
2018-01-31T12:21:11.462Z,66.88
2018-01-31T12:22:11.452Z,68.28
2018-01-31T12:23:11.443Z,67.80
2018-01-31T12:24:11.442Z,68.98
2018-01-31T12:25:11.424Z,67.71
2018-01-31T12:26:11.416Z,69.52
2018-01-31T12:27:11.404Z,68.18
2018-01-31T12:28:11.401Z,68.28
2018-01-31T12:29:11.391Z,67.33
2018-01-31T12:30:11.377Z,68.09
2018-01-31T12:31:11.365Z,68.38
2018-01-31T12:32:11.355Z,68.38
2018-01-31T12:33:11.345Z,68.57
2018-01-31T12:34:11.336Z,67.99
2018-01-31T12:35:11.328Z,69.14
2018-01-31T12:36:11.322Z,68.41
2018-01-31T12:37:11.307Z,68.18
2018-01-31T12:38:11.298Z,69.43
2018-01-31T12:39:11.287Z,68.60
2018-01-31T12:40:11.279Z,69.56
2018-01-31T12:41:11.273Z,69.08
2018-01-31T12:42:11.258Z,67.93
2018-01-31T12:43:11.247Z,68.12
2018-01-31T12:44:11.241Z,67.74
2018-01-31T12:45:11.234Z,68.41
2018-01-31T12:46:11.223Z,68.66
2018-01-31T12:47:11.210Z,68.76
2018-01-31T12:48:11.199Z,68.09
2018-01-31T12:49:11.198Z,68.95
2018-01-31T12:50:11.181Z,67.80
2018-01-31T12:51:11.170Z,68.09
2018-01-31T12:52:11.160Z,69.14
2018-01-31T12:53:11.155Z,68.28
2018-01-31T12:54:11.148Z,68.57
2018-01-31T12:55:11.131Z,70.00
2018-01-31T12:56:11.121Z,69.14
2018-01-31T12:57:11.112Z,69.71
2018-01-31T12:58:11.122Z,70.00
2018-01-31T12:59:11.099Z,68.95
2018-01-31T13:00:11.087Z,68.18
2018-01-31T13:01:11.074Z,68.18
2018-01-31T13:02:11.064Z,70.19
2018-01-31T13:03:11.058Z,69.14
2018-01-31T13:04:11.045Z,67.80
2018-01-31T13:05:11.040Z,68.47
2018-01-31T13:06:11.021Z,68.57
2018-01-31T13:07:11.012Z,67.33
2018-01-31T13:08:11.010Z,68.66
2018-01-31T13:09:11.044Z,68.38
2018-01-31T13:10:10.985Z,68.28
2018-01-31T13:11:10.979Z,68.18
2018-01-31T13:12:10.962Z,68.57
2018-01-31T13:13:10.963Z,67.99
2018-01-31T13:14:10.945Z,68.57
2018-01-31T13:15:10.936Z,68.76
2018-01-31T13:16:10.929Z,68.57
2018-01-31T13:17:10.915Z,70.19
2018-01-31T13:18:10.908Z,70.47
2018-01-31T13:19:10.903Z,70.28
2018-01-31T13:20:10.891Z,71.91
2018-01-31T13:21:10.873Z,69.90
2018-01-31T13:22:10.864Z,69.52
2018-01-31T13:23:10.852Z,70.09
2018-01-31T13:24:10.840Z,71.14
2018-01-31T13:25:10.837Z,70.19
2018-01-31T13:26:10.826Z,70.19
2018-01-31T13:27:10.819Z,70.09
2018-01-31T13:28:10.806Z,69.43
2018-01-31T13:29:10.796Z,70.19
2018-01-31T13:30:10.788Z,68.47
2018-01-31T13:31:10.772Z,69.52
2018-01-31T13:32:10.761Z,68.38
2018-01-31T13:33:10.751Z,68.85
2018-01-31T13:34:10.745Z,68.66
2018-01-31T13:35:10.731Z,68.57
2018-01-31T13:36:10.720Z,67.61
2018-01-31T13:37:10.712Z,71.91
2018-01-31T13:38:10.701Z,69.43
2018-01-31T13:39:10.691Z,68.38
2018-01-31T13:40:10.686Z,69.62
2018-01-31T13:41:10.674Z,70.19
2018-01-31T13:42:10.665Z,68.76
2018-01-31T13:43:10.653Z,68.66
2018-01-31T13:44:10.638Z,68.72
2018-01-31T13:45:10.630Z,72.19
2018-01-31T13:46:10.618Z,70.09
2018-01-31T13:47:10.614Z,70.38
2018-01-31T13:48:10.602Z,71.91
2018-01-31T13:49:10.593Z,69.90
2018-01-31T13:50:10.580Z,68.85
2018-01-31T13:51:10.566Z,68.76
2018-01-31T13:52:10.561Z,69.20
2018-01-31T13:53:10.548Z,70.28
2018-01-31T13:54:10.536Z,69.96
2018-01-31T13:55:10.531Z,69.29
2018-01-31T13:56:10.517Z,69.48
2018-01-31T13:57:10.510Z,69.71
2018-01-31T13:58:10.495Z,68.63
2018-01-31T13:59:10.484Z,68.53
2018-01-31T14:00:10.478Z,71.11
2018-01-31T14:01:10.464Z,70.25
2018-01-31T14:02:10.460Z,71.96
2018-01-31T14:03:10.444Z,71.20
2018-01-31T14:04:10.431Z,70.82
2018-01-31T14:05:10.428Z,72.34
2018-01-31T14:06:10.413Z,71.11
2018-01-31T14:07:10.409Z,71.68
2018-01-31T14:08:10.396Z,70.92
2018-01-31T14:09:10.381Z,71.20
2018-01-31T14:10:10.379Z,70.72
2018-01-31T14:11:10.359Z,70.44
2018-01-31T14:12:10.353Z,69.58
2018-01-31T14:13:10.338Z,71.48
2018-01-31T14:14:10.328Z,71.30
2018-01-31T14:15:10.316Z,69.58
2018-01-31T14:16:10.306Z,70.63
2018-01-31T14:17:10.295Z,71.39
2018-01-31T14:18:10.290Z,71.20
2018-01-31T14:19:10.273Z,71.77
2018-01-31T14:20:10.266Z,70.63
2018-01-31T14:21:10.255Z,69.96
2018-01-31T14:22:10.241Z,71.68
2018-01-31T14:23:10.232Z,71.39
2018-01-31T14:24:10.231Z,69.96
2018-01-31T14:25:10.217Z,69.64
2018-01-31T14:26:10.199Z,70.02
2018-01-31T14:27:10.188Z,70.92
2018-01-31T14:28:10.177Z,72.12
2018-01-31T14:29:10.166Z,71.96
2018-01-31T14:30:10.156Z,71.45
2018-01-31T14:31:10.145Z,71.07
2018-01-31T14:32:10.132Z,72.12
2018-01-31T14:33:10.122Z,71.07
2018-01-31T14:34:10.112Z,72.97
2018-01-31T14:35:10.103Z,71.73
2018-01-31T14:36:10.092Z,71.26
2018-01-31T14:37:10.080Z,72.97
2018-01-31T14:38:10.068Z,71.36
2018-01-31T14:39:10.055Z,71.73
2018-01-31T14:40:10.043Z,72.21
2018-01-31T14:41:10.034Z,72.12
2018-01-31T14:42:10.028Z,72.12
2018-01-31T14:43:10.015Z,71.64
2018-01-31T14:44:10.001Z,72.88
2018-01-31T14:45:09.991Z,72.97
2018-01-31T14:46:09.987Z,71.36